sensor_id;sensor_type;location;lat;lon;timestamp;P1;durP1;ratioP1;P2;durP2;ratioP2
5722;SDS011;2886;49.722;8.612;2023-02-23T00:00:16;37.43;;;17.00;;
5722;SDS011;2886;49.722;8.612;2023-02-23T00:02:48;31.93;;;17.80;;
5722;SDS011;2886;49.722;8.612;2023-02-23T00:05:14;34.83;;;18.10;;
5722;SDS011;2886;49.722;8.612;2023-02-23T00:07:44;34.77;;;16.90;;
5722;SDS011;2886;49.722;8.612;2023-02-23T00:10:11;42.60;;;18.90;;
5722;SDS011;2886;49.722;8.612;2023-02-23T00:12:38;34.87;;;17.60;;
5722;SDS011;2886;49.722;8.612;2023-02-23T00:15:05;39.00;;;19.10;;
5722;SDS011;2886;49.722;8.612;2023-02-23T00:17:32;32.77;;;17.50;;
5722;SDS011;2886;49.722;8.612;2023-02-23T00:20:00;36.83;;;18.83;;
5722;SDS011;2886;49.722;8.612;2023-02-23T00:22:35;34.27;;;20.20;;
5722;SDS011;2886;49.722;8.612;2023-02-23T00:25:02;43.30;;;19.70;;
5722;SDS011;2886;49.722;8.612;2023-02-23T00:27:32;38.27;;;20.67;;
5722;SDS011;2886;49.722;8.612;2023-02-23T00:29:59;39.13;;;20.20;;
5722;SDS011;2886;49.722;8.612;2023-02-23T00:32:24;39.30;;;18.80;;
5722;SDS011;2886;49.722;8.612;2023-02-23T00:34:50;39.73;;;19.33;;
5722;SDS011;2886;49.722;8.612;2023-02-23T00:37:16;40.80;;;18.93;;
5722;SDS011;2886;49.722;8.612;2023-02-23T00:39:44;37.90;;;19.00;;
5722;SDS011;2886;49.722;8.612;2023-02-23T00:42:12;35.53;;;18.80;;
5722;SDS011;2886;49.722;8.612;2023-02-23T00:44:38;39.20;;;19.03;;
5722;SDS011;2886;49.722;8.612;2023-02-23T00:47:04;40.93;;;20.50;;
5722;SDS011;2886;49.722;8.612;2023-02-23T00:49:30;44.00;;;20.73;;
5722;SDS011;2886;49.722;8.612;2023-02-23T00:51:56;45.93;;;19.97;;
5722;SDS011;2886;49.722;8.612;2023-02-23T00:54:23;44.03;;;21.90;;
5722;SDS011;2886;49.722;8.612;2023-02-23T00:56:49;38.97;;;19.37;;
5722;SDS011;2886;49.722;8.612;2023-02-23T00:59:15;37.73;;;20.80;;
5722;SDS011;2886;49.722;8.612;2023-02-23T01:01:41;37.20;;;18.80;;
5722;SDS011;2886;49.722;8.612;2023-02-23T01:04:07;45.70;;;20.97;;
5722;SDS011;2886;49.722;8.612;2023-02-23T01:06:33;42.57;;;19.93;;
5722;SDS011;2886;49.722;8.612;2023-02-23T01:09:04;39.40;;;20.57;;
5722;SDS011;2886;49.722;8.612;2023-02-23T01:11:32;48.57;;;19.13;;
5722;SDS011;2886;49.722;8.612;2023-02-23T01:13:58;46.53;;;21.47;;
5722;SDS011;2886;49.722;8.612;2023-02-23T01:16:30;38.83;;;18.57;;
5722;SDS011;2886;49.722;8.612;2023-02-23T01:18:58;45.27;;;21.47;;
5722;SDS011;2886;49.722;8.612;2023-02-23T01:21:30;41.83;;;20.70;;
5722;SDS011;2886;49.722;8.612;2023-02-23T01:24:00;49.10;;;20.10;;
5722;SDS011;2886;49.722;8.612;2023-02-23T01:26:27;45.23;;;20.30;;
5722;SDS011;2886;49.722;8.612;2023-02-23T01:28:58;42.07;;;21.77;;
5722;SDS011;2886;49.722;8.612;2023-02-23T01:31:26;33.77;;;19.10;;
5722;SDS011;2886;49.722;8.612;2023-02-23T01:33:59;36.57;;;19.67;;
5722;SDS011;2886;49.722;8.612;2023-02-23T01:36:25;37.47;;;18.07;;
5722;SDS011;2886;49.722;8.612;2023-02-23T01:38:55;38.10;;;17.83;;
5722;SDS011;2886;49.722;8.612;2023-02-23T01:41:22;35.60;;;18.80;;
5722;SDS011;2886;49.722;8.612;2023-02-23T01:43:57;43.27;;;18.20;;
5722;SDS011;2886;49.722;8.612;2023-02-23T01:46:23;37.60;;;19.40;;
5722;SDS011;2886;49.722;8.612;2023-02-23T01:48:49;43.93;;;19.20;;
5722;SDS011;2886;49.722;8.612;2023-02-23T01:51:18;43.77;;;20.10;;
5722;SDS011;2886;49.722;8.612;2023-02-23T01:53:49;53.20;;;19.80;;
5722;SDS011;2886;49.722;8.612;2023-02-23T01:56:20;38.50;;;19.57;;
5722;SDS011;2886;49.722;8.612;2023-02-23T01:58:54;35.20;;;19.60;;
5722;SDS011;2886;49.722;8.612;2023-02-23T02:01:24;41.10;;;18.50;;
5722;SDS011;2886;49.722;8.612;2023-02-23T02:04:01;37.20;;;18.53;;
5722;SDS011;2886;49.722;8.612;2023-02-23T02:06:30;34.13;;;18.43;;
5722;SDS011;2886;49.722;8.612;2023-02-23T02:08:58;32.57;;;17.50;;
5722;SDS011;2886;49.722;8.612;2023-02-23T02:11:32;29.00;;;16.57;;
5722;SDS011;2886;49.722;8.612;2023-02-23T02:25:18;34.97;;;18.20;;
5722;SDS011;2886;49.722;8.612;2023-02-23T02:28:33;42.30;;;18.40;;
5722;SDS011;2886;49.722;8.612;2023-02-23T02:37:44;43.70;;;20.07;;
5722;SDS011;2886;49.722;8.612;2023-02-23T02:40:15;39.00;;;18.77;;
5722;SDS011;2886;49.722;8.612;2023-02-23T02:43:00;40.40;;;19.37;;
5722;SDS011;2886;49.722;8.612;2023-02-23T02:48:56;43.70;;;19.50;;
5722;SDS011;2886;49.722;8.612;2023-02-23T02:51:52;39.00;;;19.43;;
5722;SDS011;2886;49.722;8.612;2023-02-23T02:54:48;40.40;;;19.20;;
5722;SDS011;2886;49.722;8.612;2023-02-23T02:57:23;32.93;;;17.63;;
5722;SDS011;2886;49.722;8.612;2023-02-23T02:59:51;37.37;;;19.10;;
5722;SDS011;2886;49.722;8.612;2023-02-23T03:02:36;37.53;;;19.10;;
5722;SDS011;2886;49.722;8.612;2023-02-23T03:05:27;32.43;;;17.97;;
5722;SDS011;2886;49.722;8.612;2023-02-23T03:11:12;37.50;;;16.70;;
5722;SDS011;2886;49.722;8.612;2023-02-23T03:20:25;39.00;;;18.70;;
5722;SDS011;2886;49.722;8.612;2023-02-23T03:23:15;40.20;;;18.70;;
5722;SDS011;2886;49.722;8.612;2023-02-23T03:26:08;39.43;;;18.67;;
5722;SDS011;2886;49.722;8.612;2023-02-23T03:39:00;38.00;;;18.13;;
5722;SDS011;2886;49.722;8.612;2023-02-23T03:41:54;37.23;;;17.90;;
5722;SDS011;2886;49.722;8.612;2023-02-23T03:44:43;42.00;;;18.23;;
5722;SDS011;2886;49.722;8.612;2023-02-23T03:47:30;49.00;;;20.57;;
5722;SDS011;2886;49.722;8.612;2023-02-23T03:50:27;38.03;;;18.47;;
5722;SDS011;2886;49.722;8.612;2023-02-23T03:53:18;38.57;;;19.60;;
5722;SDS011;2886;49.722;8.612;2023-02-23T03:56:08;41.50;;;19.10;;
5722;SDS011;2886;49.722;8.612;2023-02-23T03:58:56;50.67;;;21.27;;
5722;SDS011;2886;49.722;8.612;2023-02-23T04:01:43;36.50;;;19.13;;
5722;SDS011;2886;49.722;8.612;2023-02-23T04:04:28;38.60;;;19.30;;
5722;SDS011;2886;49.722;8.612;2023-02-23T04:07:14;40.77;;;19.43;;
5722;SDS011;2886;49.722;8.612;2023-02-23T04:09:40;40.20;;;19.00;;
5722;SDS011;2886;49.722;8.612;2023-02-23T04:17:52;40.63;;;19.87;;
5722;SDS011;2886;49.722;8.612;2023-02-23T04:20:18;37.03;;;18.60;;
5722;SDS011;2886;49.722;8.612;2023-02-23T04:22:44;36.50;;;19.37;;
5722;SDS011;2886;49.722;8.612;2023-02-23T04:25:10;42.07;;;19.53;;
5722;SDS011;2886;49.722;8.612;2023-02-23T04:27:37;36.50;;;18.80;;
5722;SDS011;2886;49.722;8.612;2023-02-23T04:30:03;34.00;;;18.80;;
5722;SDS011;2886;49.722;8.612;2023-02-23T04:32:29;39.80;;;18.47;;
5722;SDS011;2886;49.722;8.612;2023-02-23T04:34:55;35.70;;;18.93;;
5722;SDS011;2886;49.722;8.612;2023-02-23T04:37:21;44.07;;;18.70;;
5722;SDS011;2886;49.722;8.612;2023-02-23T04:39:46;40.90;;;20.03;;
5722;SDS011;2886;49.722;8.612;2023-02-23T04:42:15;43.97;;;20.17;;
5722;SDS011;2886;49.722;8.612;2023-02-23T04:44:41;48.67;;;21.20;;
5722;SDS011;2886;49.722;8.612;2023-02-23T04:47:07;37.93;;;17.90;;
5722;SDS011;2886;49.722;8.612;2023-02-23T04:49:33;41.00;;;19.20;;
5722;SDS011;2886;49.722;8.612;2023-02-23T04:51:59;39.50;;;18.60;;
5722;SDS011;2886;49.722;8.612;2023-02-23T04:54:24;47.00;;;18.80;;
5722;SDS011;2886;49.722;8.612;2023-02-23T04:56:50;43.13;;;19.83;;
5722;SDS011;2886;49.722;8.612;2023-02-23T04:59:16;44.90;;;18.87;;
5722;SDS011;2886;49.722;8.612;2023-02-23T05:01:42;35.77;;;18.60;;
5722;SDS011;2886;49.722;8.612;2023-02-23T05:04:08;33.40;;;17.77;;
5722;SDS011;2886;49.722;8.612;2023-02-23T05:06:33;38.57;;;18.80;;
5722;SDS011;2886;49.722;8.612;2023-02-23T05:08:59;38.43;;;17.43;;
5722;SDS011;2886;49.722;8.612;2023-02-23T05:11:27;37.40;;;17.70;;
5722;SDS011;2886;49.722;8.612;2023-02-23T05:13:53;35.90;;;19.47;;
5722;SDS011;2886;49.722;8.612;2023-02-23T05:16:19;47.27;;;19.70;;
5722;SDS011;2886;49.722;8.612;2023-02-23T05:18:46;44.90;;;19.97;;
5722;SDS011;2886;49.722;8.612;2023-02-23T05:21:12;39.07;;;20.53;;
5722;SDS011;2886;49.722;8.612;2023-02-23T05:23:37;43.73;;;20.90;;
5722;SDS011;2886;49.722;8.612;2023-02-23T05:26:05;39.80;;;18.40;;
5722;SDS011;2886;49.722;8.612;2023-02-23T05:28:33;45.60;;;22.20;;
5722;SDS011;2886;49.722;8.612;2023-02-23T05:31:00;50.67;;;20.37;;
5722;SDS011;2886;49.722;8.612;2023-02-23T05:33:27;37.60;;;20.17;;
5722;SDS011;2886;49.722;8.612;2023-02-23T05:35:54;40.83;;;19.20;;
5722;SDS011;2886;49.722;8.612;2023-02-23T05:38:19;40.00;;;20.00;;
5722;SDS011;2886;49.722;8.612;2023-02-23T05:40:46;48.00;;;22.00;;
5722;SDS011;2886;49.722;8.612;2023-02-23T05:43:12;45.53;;;21.60;;
5722;SDS011;2886;49.722;8.612;2023-02-23T05:45:41;41.80;;;22.30;;
5722;SDS011;2886;49.722;8.612;2023-02-23T05:48:08;46.67;;;20.20;;
5722;SDS011;2886;49.722;8.612;2023-02-23T05:50:35;49.73;;;22.13;;
5722;SDS011;2886;49.722;8.612;2023-02-23T05:53:01;52.40;;;23.83;;
5722;SDS011;2886;49.722;8.612;2023-02-23T05:55:27;45.37;;;22.47;;
5722;SDS011;2886;49.722;8.612;2023-02-23T05:57:52;43.93;;;22.87;;
5722;SDS011;2886;49.722;8.612;2023-02-23T06:00:18;58.93;;;24.27;;
5722;SDS011;2886;49.722;8.612;2023-02-23T06:02:44;49.47;;;21.30;;
5722;SDS011;2886;49.722;8.612;2023-02-23T06:05:10;47.07;;;23.10;;
5722;SDS011;2886;49.722;8.612;2023-02-23T06:07:37;46.80;;;22.67;;
5722;SDS011;2886;49.722;8.612;2023-02-23T06:10:03;57.63;;;22.27;;
5722;SDS011;2886;49.722;8.612;2023-02-23T06:12:30;45.37;;;22.80;;
5722;SDS011;2886;49.722;8.612;2023-02-23T06:14:56;45.00;;;22.53;;
5722;SDS011;2886;49.722;8.612;2023-02-23T06:17:21;55.83;;;24.80;;
5722;SDS011;2886;49.722;8.612;2023-02-23T06:19:47;50.90;;;23.37;;
5722;SDS011;2886;49.722;8.612;2023-02-23T06:22:13;56.60;;;23.13;;
5722;SDS011;2886;49.722;8.612;2023-02-23T06:24:41;53.80;;;25.77;;
5722;SDS011;2886;49.722;8.612;2023-02-23T06:27:07;51.70;;;22.00;;
5722;SDS011;2886;49.722;8.612;2023-02-23T06:29:33;59.33;;;23.63;;
5722;SDS011;2886;49.722;8.612;2023-02-23T06:31:58;50.70;;;24.13;;
5722;SDS011;2886;49.722;8.612;2023-02-23T06:34:24;47.87;;;23.60;;
5722;SDS011;2886;49.722;8.612;2023-02-23T06:36:51;59.07;;;24.27;;
5722;SDS011;2886;49.722;8.612;2023-02-23T06:39:16;54.20;;;23.07;;
5722;SDS011;2886;49.722;8.612;2023-02-23T06:41:42;49.30;;;22.77;;
5722;SDS011;2886;49.722;8.612;2023-02-23T06:44:07;49.10;;;22.17;;
5722;SDS011;2886;49.722;8.612;2023-02-23T06:46:33;56.30;;;23.30;;
5722;SDS011;2886;49.722;8.612;2023-02-23T06:49:00;51.90;;;21.73;;
5722;SDS011;2886;49.722;8.612;2023-02-23T06:51:25;47.97;;;22.30;;
5722;SDS011;2886;49.722;8.612;2023-02-23T06:53:51;54.73;;;23.77;;
5722;SDS011;2886;49.722;8.612;2023-02-23T06:56:17;50.90;;;24.27;;
5722;SDS011;2886;49.722;8.612;2023-02-23T06:58:43;49.30;;;23.17;;
5722;SDS011;2886;49.722;8.612;2023-02-23T07:01:09;47.43;;;23.00;;
5722;SDS011;2886;49.722;8.612;2023-02-23T07:03:36;52.57;;;23.60;;
5722;SDS011;2886;49.722;8.612;2023-02-23T07:06:02;53.20;;;22.60;;
5722;SDS011;2886;49.722;8.612;2023-02-23T07:08:30;49.03;;;23.90;;
5722;SDS011;2886;49.722;8.612;2023-02-23T07:11:03;51.90;;;23.00;;
5722;SDS011;2886;49.722;8.612;2023-02-23T07:13:33;52.27;;;25.87;;
5722;SDS011;2886;49.722;8.612;2023-02-23T07:15:59;51.67;;;22.47;;
5722;SDS011;2886;49.722;8.612;2023-02-23T07:18:25;51.50;;;23.53;;
5722;SDS011;2886;49.722;8.612;2023-02-23T07:20:51;55.43;;;23.27;;
5722;SDS011;2886;49.722;8.612;2023-02-23T07:23:17;52.10;;;22.90;;
5722;SDS011;2886;49.722;8.612;2023-02-23T07:25:43;46.63;;;22.70;;
5722;SDS011;2886;49.722;8.612;2023-02-23T07:28:09;52.70;;;23.20;;
5722;SDS011;2886;49.722;8.612;2023-02-23T07:30:38;50.57;;;22.43;;
5722;SDS011;2886;49.722;8.612;2023-02-23T07:33:04;54.90;;;24.73;;
5722;SDS011;2886;49.722;8.612;2023-02-23T07:35:29;52.20;;;23.80;;
5722;SDS011;2886;49.722;8.612;2023-02-23T07:37:55;50.63;;;22.07;;
5722;SDS011;2886;49.722;8.612;2023-02-23T07:40:21;56.73;;;23.10;;
5722;SDS011;2886;49.722;8.612;2023-02-23T07:42:46;61.87;;;24.33;;
5722;SDS011;2886;49.722;8.612;2023-02-23T07:45:12;49.47;;;23.60;;
5722;SDS011;2886;49.722;8.612;2023-02-23T07:47:38;54.67;;;23.60;;
5722;SDS011;2886;49.722;8.612;2023-02-23T07:50:04;57.37;;;24.03;;
5722;SDS011;2886;49.722;8.612;2023-02-23T07:52:34;52.67;;;22.50;;
5722;SDS011;2886;49.722;8.612;2023-02-23T07:55:01;47.40;;;21.97;;
5722;SDS011;2886;49.722;8.612;2023-02-23T07:57:27;49.00;;;21.93;;
5722;SDS011;2886;49.722;8.612;2023-02-23T07:59:53;47.93;;;22.23;;
5722;SDS011;2886;49.722;8.612;2023-02-23T08:02:19;50.27;;;21.40;;
5722;SDS011;2886;49.722;8.612;2023-02-23T08:04:44;42.90;;;20.97;;
5722;SDS011;2886;49.722;8.612;2023-02-23T08:07:10;47.97;;;21.70;;
5722;SDS011;2886;49.722;8.612;2023-02-23T08:09:36;48.13;;;21.67;;
5722;SDS011;2886;49.722;8.612;2023-02-23T08:12:02;47.93;;;20.77;;
5722;SDS011;2886;49.722;8.612;2023-02-23T08:14:27;49.40;;;23.03;;
5722;SDS011;2886;49.722;8.612;2023-02-23T08:16:53;47.23;;;22.13;;
5722;SDS011;2886;49.722;8.612;2023-02-23T08:19:19;41.57;;;20.50;;
5722;SDS011;2886;49.722;8.612;2023-02-23T08:21:48;55.97;;;21.77;;
5722;SDS011;2886;49.722;8.612;2023-02-23T08:24:14;45.67;;;22.23;;
5722;SDS011;2886;49.722;8.612;2023-02-23T08:26:41;53.73;;;21.23;;
5722;SDS011;2886;49.722;8.612;2023-02-23T08:29:09;44.17;;;20.60;;
5722;SDS011;2886;49.722;8.612;2023-02-23T08:31:34;57.27;;;23.43;;
5722;SDS011;2886;49.722;8.612;2023-02-23T08:36:31;49.20;;;23.30;;
5722;SDS011;2886;49.722;8.612;2023-02-23T08:38:57;39.93;;;20.00;;
5722;SDS011;2886;49.722;8.612;2023-02-23T08:41:24;46.70;;;22.67;;
5722;SDS011;2886;49.722;8.612;2023-02-23T08:43:51;47.60;;;20.73;;
5722;SDS011;2886;49.722;8.612;2023-02-23T08:46:17;41.53;;;20.20;;
5722;SDS011;2886;49.722;8.612;2023-02-23T08:48:44;39.20;;;19.80;;
5722;SDS011;2886;49.722;8.612;2023-02-23T08:51:11;41.13;;;20.10;;
5722;SDS011;2886;49.722;8.612;2023-02-23T08:53:38;42.77;;;20.53;;
5722;SDS011;2886;49.722;8.612;2023-02-23T08:56:05;42.50;;;21.33;;
5722;SDS011;2886;49.722;8.612;2023-02-23T08:58:33;52.50;;;22.43;;
5722;SDS011;2886;49.722;8.612;2023-02-23T09:01:00;44.80;;;21.57;;
5722;SDS011;2886;49.722;8.612;2023-02-23T09:03:26;46.33;;;20.57;;
5722;SDS011;2886;49.722;8.612;2023-02-23T09:05:54;43.57;;;20.10;;
5722;SDS011;2886;49.722;8.612;2023-02-23T09:08:22;41.10;;;19.93;;
5722;SDS011;2886;49.722;8.612;2023-02-23T09:10:48;41.03;;;20.70;;
5722;SDS011;2886;49.722;8.612;2023-02-23T09:13:14;40.40;;;20.43;;
5722;SDS011;2886;49.722;8.612;2023-02-23T09:15:40;39.33;;;20.57;;
5722;SDS011;2886;49.722;8.612;2023-02-23T09:18:07;42.20;;;19.60;;
5722;SDS011;2886;49.722;8.612;2023-02-23T09:20:35;45.80;;;21.40;;
5722;SDS011;2886;49.722;8.612;2023-02-23T09:23:00;39.40;;;19.90;;
5722;SDS011;2886;49.722;8.612;2023-02-23T09:25:26;44.87;;;21.40;;
5722;SDS011;2886;49.722;8.612;2023-02-23T09:27:54;45.40;;;21.43;;
5722;SDS011;2886;49.722;8.612;2023-02-23T09:30:24;44.00;;;22.97;;
5722;SDS011;2886;49.722;8.612;2023-02-23T09:32:52;44.37;;;20.87;;
5722;SDS011;2886;49.722;8.612;2023-02-23T09:35:19;44.47;;;20.50;;
5722;SDS011;2886;49.722;8.612;2023-02-23T09:37:47;40.43;;;21.37;;
5722;SDS011;2886;49.722;8.612;2023-02-23T09:40:16;44.17;;;20.60;;
5722;SDS011;2886;49.722;8.612;2023-02-23T09:45:24;43.80;;;22.77;;
5722;SDS011;2886;49.722;8.612;2023-02-23T09:50:28;49.93;;;22.27;;
5722;SDS011;2886;49.722;8.612;2023-02-23T09:52:58;38.20;;;19.77;;
5722;SDS011;2886;49.722;8.612;2023-02-23T09:55:36;41.53;;;20.13;;
5722;SDS011;2886;49.722;8.612;2023-02-23T09:58:11;44.43;;;19.73;;
5722;SDS011;2886;49.722;8.612;2023-02-23T10:00:46;39.73;;;17.77;;
5722;SDS011;2886;49.722;8.612;2023-02-23T10:06:00;38.40;;;18.60;;
5722;SDS011;2886;49.722;8.612;2023-02-23T10:14:07;39.80;;;20.07;;
5722;SDS011;2886;49.722;8.612;2023-02-23T10:16:59;41.27;;;18.17;;
5722;SDS011;2886;49.722;8.612;2023-02-23T10:22:23;27.20;;;15.00;;
5722;SDS011;2886;49.722;8.612;2023-02-23T10:27:25;48.57;;;18.90;;
5722;SDS011;2886;49.722;8.612;2023-02-23T10:29:56;35.90;;;17.37;;
5722;SDS011;2886;49.722;8.612;2023-02-23T10:32:39;45.40;;;26.50;;
5722;SDS011;2886;49.722;8.612;2023-02-23T10:35:12;40.60;;;17.53;;
5722;SDS011;2886;49.722;8.612;2023-02-23T10:37:39;42.60;;;17.33;;
5722;SDS011;2886;49.722;8.612;2023-02-23T10:40:06;33.00;;;16.17;;
5722;SDS011;2886;49.722;8.612;2023-02-23T10:42:49;35.87;;;16.40;;
5722;SDS011;2886;49.722;8.612;2023-02-23T10:45:20;39.53;;;15.97;;
5722;SDS011;2886;49.722;8.612;2023-02-23T10:47:57;37.73;;;16.00;;
5722;SDS011;2886;49.722;8.612;2023-02-23T10:50:37;28.80;;;15.50;;
5722;SDS011;2886;49.722;8.612;2023-02-23T10:56:07;29.27;;;15.80;;
5722;SDS011;2886;49.722;8.612;2023-02-23T10:58:47;30.77;;;15.50;;
5722;SDS011;2886;49.722;8.612;2023-02-23T11:04:11;37.73;;;16.00;;
5722;SDS011;2886;49.722;8.612;2023-02-23T11:09:37;24.80;;;13.43;;
5722;SDS011;2886;49.722;8.612;2023-02-23T11:14:47;48.23;;;13.47;;
5722;SDS011;2886;49.722;8.612;2023-02-23T11:17:27;23.80;;;12.03;;
5722;SDS011;2886;49.722;8.612;2023-02-23T11:20:03;26.53;;;10.77;;
5722;SDS011;2886;49.722;8.612;2023-02-23T11:22:42;22.97;;;12.80;;
5722;SDS011;2886;49.722;8.612;2023-02-23T11:25:13;20.07;;;11.23;;
5722;SDS011;2886;49.722;8.612;2023-02-23T11:27:47;22.57;;;12.03;;
5722;SDS011;2886;49.722;8.612;2023-02-23T11:30:15;24.63;;;12.20;;
5722;SDS011;2886;49.722;8.612;2023-02-23T11:32:48;19.43;;;10.80;;
5722;SDS011;2886;49.722;8.612;2023-02-23T11:35:24;17.63;;;10.37;;
5722;SDS011;2886;49.722;8.612;2023-02-23T11:37:52;18.20;;;10.30;;
5722;SDS011;2886;49.722;8.612;2023-02-23T11:40:20;18.30;;;10.10;;
5722;SDS011;2886;49.722;8.612;2023-02-23T11:42:52;17.27;;;9.43;;
5722;SDS011;2886;49.722;8.612;2023-02-23T11:45:31;23.47;;;10.60;;
5722;SDS011;2886;49.722;8.612;2023-02-23T11:48:19;15.80;;;9.00;;
5722;SDS011;2886;49.722;8.612;2023-02-23T11:50:46;23.13;;;10.27;;
5722;SDS011;2886;49.722;8.612;2023-02-23T11:53:14;20.60;;;10.30;;
5722;SDS011;2886;49.722;8.612;2023-02-23T11:55:49;15.87;;;9.63;;
5722;SDS011;2886;49.722;8.612;2023-02-23T12:01:04;10.67;;;5.90;;
5722;SDS011;2886;49.722;8.612;2023-02-23T12:03:36;11.57;;;5.70;;
5722;SDS011;2886;49.722;8.612;2023-02-23T12:06:08;12.50;;;5.70;;
5722;SDS011;2886;49.722;8.612;2023-02-23T12:08:36;15.67;;;5.23;;
5722;SDS011;2886;49.722;8.612;2023-02-23T12:11:21;12.43;;;5.07;;
5722;SDS011;2886;49.722;8.612;2023-02-23T12:16:31;13.10;;;6.87;;
5722;SDS011;2886;49.722;8.612;2023-02-23T12:35:02;7.17;;;4.70;;
5722;SDS011;2886;49.722;8.612;2023-02-23T12:37:36;12.40;;;4.27;;
5722;SDS011;2886;49.722;8.612;2023-02-23T12:42:40;8.83;;;5.00;;
5722;SDS011;2886;49.722;8.612;2023-02-23T12:50:54;12.23;;;4.30;;
5722;SDS011;2886;49.722;8.612;2023-02-23T12:53:33;8.20;;;4.00;;
5722;SDS011;2886;49.722;8.612;2023-02-23T12:56:05;8.33;;;4.53;;
5722;SDS011;2886;49.722;8.612;2023-02-23T13:01:23;10.47;;;4.73;;
5722;SDS011;2886;49.722;8.612;2023-02-23T13:04:08;6.67;;;4.40;;
5722;SDS011;2886;49.722;8.612;2023-02-23T13:09:55;7.70;;;4.60;;
5722;SDS011;2886;49.722;8.612;2023-02-23T13:12:53;7.30;;;4.20;;
5722;SDS011;2886;49.722;8.612;2023-02-23T13:21:04;6.07;;;3.27;;
5722;SDS011;2886;49.722;8.612;2023-02-23T13:23:55;7.30;;;4.00;;
5722;SDS011;2886;49.722;8.612;2023-02-23T13:32:26;7.03;;;3.70;;
5722;SDS011;2886;49.722;8.612;2023-02-23T13:34:57;7.67;;;3.80;;
5722;SDS011;2886;49.722;8.612;2023-02-23T13:37:42;6.87;;;3.80;;
5722;SDS011;2886;49.722;8.612;2023-02-23T13:50:59;7.50;;;4.97;;
5722;SDS011;2886;49.722;8.612;2023-02-23T13:53:43;6.10;;;3.97;;
5722;SDS011;2886;49.722;8.612;2023-02-23T13:58:44;6.67;;;3.70;;
5722;SDS011;2886;49.722;8.612;2023-02-23T14:01:37;7.90;;;4.27;;
5722;SDS011;2886;49.722;8.612;2023-02-23T14:04:05;5.67;;;4.20;;
5722;SDS011;2886;49.722;8.612;2023-02-23T14:06:38;6.87;;;4.30;;
5722;SDS011;2886;49.722;8.612;2023-02-23T14:09:20;9.80;;;4.50;;
5722;SDS011;2886;49.722;8.612;2023-02-23T14:12:37;6.30;;;4.47;;
5722;SDS011;2886;49.722;8.612;2023-02-23T14:20:04;6.70;;;4.30;;
5722;SDS011;2886;49.722;8.612;2023-02-23T14:22:35;6.43;;;4.23;;
5722;SDS011;2886;49.722;8.612;2023-02-23T14:28:00;12.30;;;5.63;;
5722;SDS011;2886;49.722;8.612;2023-02-23T14:30:46;12.57;;;5.60;;
5722;SDS011;2886;49.722;8.612;2023-02-23T14:33:35;9.40;;;5.23;;
5722;SDS011;2886;49.722;8.612;2023-02-23T14:38:46;8.73;;;4.60;;
5722;SDS011;2886;49.722;8.612;2023-02-23T14:41:24;11.33;;;4.40;;
5722;SDS011;2886;49.722;8.612;2023-02-23T14:44:11;9.90;;;4.70;;
5722;SDS011;2886;49.722;8.612;2023-02-23T14:46:52;8.30;;;4.90;;
5722;SDS011;2886;49.722;8.612;2023-02-23T14:49:22;11.27;;;4.70;;
5722;SDS011;2886;49.722;8.612;2023-02-23T14:51:51;7.80;;;5.20;;
5722;SDS011;2886;49.722;8.612;2023-02-23T14:56:55;9.90;;;5.23;;
5722;SDS011;2886;49.722;8.612;2023-02-23T14:59:24;7.20;;;5.30;;
5722;SDS011;2886;49.722;8.612;2023-02-23T15:01:54;8.90;;;5.33;;
5722;SDS011;2886;49.722;8.612;2023-02-23T15:04:25;9.83;;;5.20;;
5722;SDS011;2886;49.722;8.612;2023-02-23T15:06:54;7.20;;;4.60;;
5722;SDS011;2886;49.722;8.612;2023-02-23T15:09:28;6.80;;;4.60;;
5722;SDS011;2886;49.722;8.612;2023-02-23T15:12:11;9.53;;;4.97;;
5722;SDS011;2886;49.722;8.612;2023-02-23T15:14:40;8.60;;;6.10;;
5722;SDS011;2886;49.722;8.612;2023-02-23T15:17:10;11.20;;;6.20;;
5722;SDS011;2886;49.722;8.612;2023-02-23T15:19:39;8.37;;;5.37;;
5722;SDS011;2886;49.722;8.612;2023-02-23T15:22:05;5.60;;;4.27;;
5722;SDS011;2886;49.722;8.612;2023-02-23T15:24:41;7.00;;;4.30;;
5722;SDS011;2886;49.722;8.612;2023-02-23T15:27:19;7.70;;;5.20;;
5722;SDS011;2886;49.722;8.612;2023-02-23T15:29:48;7.53;;;4.50;;
5722;SDS011;2886;49.722;8.612;2023-02-23T15:32:18;11.93;;;5.10;;
5722;SDS011;2886;49.722;8.612;2023-02-23T15:34:45;8.30;;;4.83;;
5722;SDS011;2886;49.722;8.612;2023-02-23T15:37:13;5.70;;;4.20;;
5722;SDS011;2886;49.722;8.612;2023-02-23T15:39:53;9.23;;;4.63;;
5722;SDS011;2886;49.722;8.612;2023-02-23T15:42:27;8.80;;;4.53;;
5722;SDS011;2886;49.722;8.612;2023-02-23T15:44:57;8.83;;;4.93;;
5722;SDS011;2886;49.722;8.612;2023-02-23T15:47:35;8.00;;;5.10;;
5722;SDS011;2886;49.722;8.612;2023-02-23T15:50:06;7.77;;;4.97;;
5722;SDS011;2886;49.722;8.612;2023-02-23T15:52:49;7.27;;;4.90;;
5722;SDS011;2886;49.722;8.612;2023-02-23T15:55:34;8.20;;;4.80;;
5722;SDS011;2886;49.722;8.612;2023-02-23T15:58:09;11.63;;;4.80;;
5722;SDS011;2886;49.722;8.612;2023-02-23T16:00:49;10.27;;;5.43;;
5722;SDS011;2886;49.722;8.612;2023-02-23T16:03:53;11.33;;;6.50;;
5722;SDS011;2886;49.722;8.612;2023-02-23T16:11:33;9.33;;;5.77;;
5722;SDS011;2886;49.722;8.612;2023-02-23T16:14:00;10.93;;;6.53;;
5722;SDS011;2886;49.722;8.612;2023-02-23T16:16:27;9.77;;;5.03;;
5722;SDS011;2886;49.722;8.612;2023-02-23T16:18:54;9.43;;;5.60;;
5722;SDS011;2886;49.722;8.612;2023-02-23T16:21:27;9.77;;;6.23;;
5722;SDS011;2886;49.722;8.612;2023-02-23T16:23:55;9.83;;;6.07;;
5722;SDS011;2886;49.722;8.612;2023-02-23T16:26:33;9.03;;;5.77;;
5722;SDS011;2886;49.722;8.612;2023-02-23T16:29:14;10.90;;;5.57;;
5722;SDS011;2886;49.722;8.612;2023-02-23T16:34:32;9.37;;;5.20;;
5722;SDS011;2886;49.722;8.612;2023-02-23T16:37:12;8.93;;;5.77;;
5722;SDS011;2886;49.722;8.612;2023-02-23T16:39:50;11.17;;;5.33;;
5722;SDS011;2886;49.722;8.612;2023-02-23T16:42:21;11.37;;;6.20;;
5722;SDS011;2886;49.722;8.612;2023-02-23T16:44:52;8.80;;;5.50;;
5722;SDS011;2886;49.722;8.612;2023-02-23T16:49:46;10.77;;;6.23;;
5722;SDS011;2886;49.722;8.612;2023-02-23T16:52:15;9.23;;;5.43;;
5722;SDS011;2886;49.722;8.612;2023-02-23T16:54:43;9.03;;;5.83;;
5722;SDS011;2886;49.722;8.612;2023-02-23T16:59:46;9.70;;;6.03;;
5722;SDS011;2886;49.722;8.612;2023-02-23T17:02:15;13.50;;;5.53;;
5722;SDS011;2886;49.722;8.612;2023-02-23T17:04:42;9.53;;;5.83;;
5722;SDS011;2886;49.722;8.612;2023-02-23T17:07:13;9.97;;;6.00;;
5722;SDS011;2886;49.722;8.612;2023-02-23T17:09:40;11.80;;;7.10;;
5722;SDS011;2886;49.722;8.612;2023-02-23T17:12:07;10.23;;;5.73;;
5722;SDS011;2886;49.722;8.612;2023-02-23T17:14:35;12.77;;;6.33;;
5722;SDS011;2886;49.722;8.612;2023-02-23T17:17:01;11.23;;;6.87;;
5722;SDS011;2886;49.722;8.612;2023-02-23T17:19:27;11.63;;;7.00;;
5722;SDS011;2886;49.722;8.612;2023-02-23T17:21:52;9.67;;;6.40;;
5722;SDS011;2886;49.722;8.612;2023-02-23T17:24:18;12.57;;;7.80;;
5722;SDS011;2886;49.722;8.612;2023-02-23T17:26:49;10.83;;;6.80;;
5722;SDS011;2886;49.722;8.612;2023-02-23T17:29:15;17.80;;;7.40;;
5722;SDS011;2886;49.722;8.612;2023-02-23T17:31:41;16.17;;;8.00;;
5722;SDS011;2886;49.722;8.612;2023-02-23T17:34:06;14.40;;;7.93;;
5722;SDS011;2886;49.722;8.612;2023-02-23T17:36:33;14.87;;;7.60;;
5722;SDS011;2886;49.722;8.612;2023-02-23T17:38:58;13.77;;;7.90;;
5722;SDS011;2886;49.722;8.612;2023-02-23T17:41:25;14.00;;;7.70;;
5722;SDS011;2886;49.722;8.612;2023-02-23T17:43:51;14.13;;;7.57;;
5722;SDS011;2886;49.722;8.612;2023-02-23T17:46:16;12.73;;;7.43;;
5722;SDS011;2886;49.722;8.612;2023-02-23T17:48:43;12.50;;;7.90;;
5722;SDS011;2886;49.722;8.612;2023-02-23T17:51:11;19.37;;;8.07;;
5722;SDS011;2886;49.722;8.612;2023-02-23T17:53:40;18.80;;;9.63;;
5722;SDS011;2886;49.722;8.612;2023-02-23T17:56:07;19.53;;;9.40;;
5722;SDS011;2886;49.722;8.612;2023-02-23T17:58:33;15.40;;;9.70;;
5722;SDS011;2886;49.722;8.612;2023-02-23T18:01:00;18.27;;;9.20;;
5722;SDS011;2886;49.722;8.612;2023-02-23T18:03:27;14.80;;;8.40;;